Date,TemperatureHighF,TemperatureAvgF,TemperatureLowF,DewpointHighF,DewpointAvgF,DewpointLowF,HumidityHigh,HumidityAvg,HumidityLow,PressureMaxIn,PressureMinIn,WindSpeedMaxMPH,WindSpeedAvgMPH,GustSpeedMaxMPH,PrecipitationSumIn
2014-1-1,63,41,29,-100,-100,-100,0,0,100,0.00,40.00,0,-999,0,0.00
2014-1-2,54,37,29,-100,-100,-100,0,0,100,0.00,40.00,0,-999,0,0.00
2014-1-3,52,34,22,-100,-100,-100,0,0,100,0.00,40.00,0,-999,0,0.00
2014-1-4,66,56,36,-100,-100,-100,0,0,100,0.00,40.00,0,-999,0,0.00
2014-1-5,63,39,27,-100,-100,-100,0,0,100,0.00,40.00,0,-999,0,0.00
2014-1-6,29,24,19,-100,-100,-100,0,0,100,0.00,40.00,0,-999,0,0.00
2014-1-7,45,32,19,-100,-100,-100,0,0,100,0.00,40.00,0,-999,0,0.00
2014-1-8,51,47,40,-100,-100,-100,0,0,100,0.00,40.00,0,-999,0,0.00
2014-1-9,60,54,48,-100,-100,-100,0,0,100,0.00,40.00,0,-999,0,0.00
2014-1-10,66,62,60,-100,-100,-100,0,0,100,0.00,40.00,0,-999,0,0.00
2014-1-11,69,58,41,-100,-100,-100,0,0,100,0.00,40.00,0,-999,0,0.00
2014-1-12,66,54,32,-100,-100,-100,0,0,100,0.00,40.00,0,-999,0,0.00
2014-1-13,65,57,35,-100,-100,-100,0,0,100,0.00,40.00,0,-999,0,0.00
2014-1-14,69,53,30,-100,-100,-100,0,0,100,0.00,40.00,0,-999,0,0.00
2014-1-15,55,42,30,-100,-100,-100,0,0,100,0.00,40.00,0,-999,0,0.00
2014-1-16,65,48,31,-100,-100,-100,0,0,100,0.00,40.00,0,-999,0,0.00
2014-1-17,55,46,32,-100,-100,-100,0,0,100,0.00,40.00,0,-999,0,0.00
2014-1-18,66,51,27,-100,-100,-100,0,0,100,0.00,40.00,0,-999,0,0.00
2014-1-19,64,44,31,-100,-100,-100,0,0,100,0.00,40.00,0,-999,0,0.00
2014-1-20,76,60,32,-100,-100,-100,0,0,100,0.00,40.00,0,-999,0,0.00
2014-1-21,55,47,31,-100,-100,-100,0,0,100,0.00,40.00,0,-999,0,0.00
2014-1-22,62,45,25,-100,-100,-100,0,0,100,0.00,40.00,0,-999,0,0.00
2014-1-23,45,39,26,-100,-100,-100,0,0,100,0.00,40.00,0,-999,0,0.00
2014-1-24,38,31,26,-100,-100,-100,0,0,100,0.00,40.00,0,-999,0,0.00
2014-1-25,62,39,25,-100,-100,-100,0,0,100,0.00,40.00,0,-999,0,0.00
2014-1-26,70,56,42,-100,-100,-100,0,0,100,0.00,40.00,0,-999,0,0.00
2014-1-27,54,44,35,-100,-100,-100,0,0,100,0.00,40.00,0,-999,0,0.00
2014-1-28,39,33,29,-100,-100,-100,0,0,100,0.00,40.00,0,-999,0,0.00
2014-1-29,45,32,23,-100,-100,-100,0,0,100,0.00,40.00,0,-999,0,0.00
2014-1-30,58,42,29,-100,-100,-100,0,0,100,0.00,40.00,0,-999,0,0.00
2014-1-31,73,63,51,-100,-100,-100,0,0,100,0.00,40.00,0,-999,0,0.00
2014-2-1,69,60,49,-100,-100,-100,0,0,100,0.00,40.00,0,-999,0,0.00
2014-2-2,43,37,32,-100,-100,-100,0,0,100,0.00,40.00,0,-999,0,0.00
2014-2-3,43,39,32,-100,-100,-100,0,0,100,0.00,40.00,0,-999,0,0.00
2014-2-4,50,42,38,-100,-100,-100,0,0,100,0.00,40.00,0,-999,0,0.00
2014-2-5,40,35,29,-100,-100,-100,0,0,100,0.00,40.00,0,-999,0,0.00
2014-2-6,31,28,24,-100,-100,-100,0,0,100,0.00,40.00,0,-999,0,0.00
2014-2-7,36,33,29,-100,-100,-100,0,0,100,0.00,40.00,0,-999,0,0.00
2014-2-8,54,42,36,-100,-100,-100,0,0,100,0.00,40.00,0,-999,0,0.00
2014-2-9,64,52,38,-100,-100,-100,0,0,100,0.00,40.00,0,-999,0,0.00
2014-2-10,51,42,36,-100,-100,-100,0,0,100,0.00,40.00,0,-999,0,0.00
2014-2-11,36,34,32,-100,-100,-100,0,0,100,0.00,40.00,0,-999,0,0.00
2014-2-12,48,36,31,-100,-100,-100,0,0,100,0.00,40.00,0,-999,0,0.00
2014-2-13,62,50,27,-100,-100,-100,0,0,100,0.00,40.00,0,-999,0,0.00
2014-2-14,72,58,38,-100,-100,-100,0,0,100,0.00,40.00,0,-999,0,0.00
2014-2-15,69,56,34,-100,-100,-100,0,0,100,0.00,40.00,0,-999,0,0.00
2014-2-16,73,60,44,-100,-100,-100,0,0,100,0.00,40.00,0,-999,0,0.00
2014-2-17,78,68,51,-100,-100,-100,0,0,100,0.00,40.00,0,-999,0,0.00
2014-2-18,78,62,44,-100,-100,-100,0,0,100,0.00,40.00,0,-999,0,0.00
2014-2-19,76,68,64,-100,-100,-100,0,0,100,0.00,40.00,0,-999,0,0.00
2014-2-20,80,66,47,-100,-100,-100,0,0,100,0.00,40.00,0,-999,0,0.00
2014-2-21,66,52,32,-100,-100,-100,0,0,100,0.00,40.00,0,-999,0,0.00
2014-2-22,76,55,40,-100,-100,-100,0,0,100,0.00,40.00,0,-999,0,0.00
2014-2-23,75,68,60,-100,-100,-100,0,0,100,0.00,40.00,0,-999,0,0.00
2014-2-24,65,56,46,-100,-100,-100,0,0,100,0.00,40.00,0,-999,0,0.00
2014-2-25,60,55,50,-100,-100,-100,0,0,100,0.00,40.00,0,-999,0,0.00
2014-2-26,45,39,31,-100,-100,-100,0,0,100,0.00,40.00,0,-999,0,0.00
2014-2-27,58,44,25,-100,-100,-100,0,0,100,0.00,40.00,0,-999,0,0.00
2014-2-28,73,58,41,-100,-100,-100,0,0,100,0.00,40.00,0,-999,0,0.00
2014-3-1,77,69,63,-100,-100,-100,0,0,100,0.00,40.00,0,-999,0,0.00
2014-3-2,70,48,25,-100,-100,-100,0,0,100,0.00,40.00,0,-999,0,0.00
2014-3-3,30,25,21,-100,-100,-100,0,0,100,0.00,40.00,0,-999,0,0.00
2014-3-4,48,37,27,-100,-100,-100,0,0,100,0.00,40.00,0,-999,0,0.00
2014-3-5,51,41,32,-100,-100,-100,0,0,100,0.00,40.00,0,-999,0,0.00
2014-3-6,54,45,35,-100,-100,-100,0,0,100,0.00,40.00,0,-999,0,0.00
2014-3-7,66,53,30,-100,-100,-100,0,0,100,0.00,40.00,0,-999,0,0.00
2014-3-8,58,51,44,-100,-100,-100,0,0,100,0.00,40.00,0,-999,0,0.00
2014-3-9,60,48,40,-100,-100,-100,0,0,100,0.00,40.00,0,-999,0,0.00
2014-3-10,73,54,39,-100,-100,-100,0,0,100,0.00,40.00,0,-999,0,0.00
2014-3-11,73,63,54,-100,-100,-100,0,0,100,0.00,40.00,0,-999,0,0.00
2014-3-12,62,55,41,-100,-100,-100,0,0,100,0.00,40.00,0,-999,0,0.00
2014-3-13,68,52,31,-100,-100,-100,0,0,100,0.00,40.00,0,-999,0,0.00
2014-3-14,70,58,43,-100,-100,-100,0,0,100,0.00,40.00,0,-999,0,0.00
2014-3-15,68,63,60,-100,-100,-100,0,0,100,0.00,40.00,0,-999,0,0.00
2014-3-16,60,53,43,-100,-100,-100,0,0,100,0.00,40.00,0,-999,0,0.00
2014-3-17,62,51,42,-100,-100,-100,0,0,100,0.00,40.00,0,-999,0,0.00
2014-3-18,75,60,38,-100,-100,-100,0,0,100,0.00,40.00,0,-999,0,0.00
2014-3-19,65,60,48,-100,-100,-100,0,0,100,0.00,40.00,0,-999,0,0.00
2014-3-20,74,54,38,-100,-100,-100,0,0,100,0.00,40.00,0,-999,0,0.00
2014-3-21,77,64,43,-100,-100,-100,0,0,100,0.00,40.00,0,-999,0,0.00
2014-3-22,76,67,61,-100,-100,-100,0,0,100,0.00,40.00,0,-999,0,0.00
2014-3-23,60,53,50,-100,-100,-100,0,0,100,0.00,40.00,0,-999,0,0.00
2014-3-24,67,56,45,-100,-100,-100,0,0,100,0.00,40.00,0,-999,0,0.00
2014-3-25,64,52,39,-100,-100,-100,0,0,100,0.00,40.00,0,-999,0,0.00
2014-3-26,64,52,39,-100,-100,-100,0,0,100,0.00,40.00,0,-999,0,0.00
2014-3-27,70,64,56,-100,-100,-100,0,0,100,0.00,40.00,0,-999,0,0.00
2014-3-28,82,73,68,-100,-100,-100,0,0,100,0.00,40.00,0,-999,0,0.00
2014-3-29,73,58,49,-100,-100,-100,0,0,100,0.00,40.00,0,-999,0,0.00
2014-3-30,74,53,42,-100,-100,-100,0,0,100,0.00,40.00,0,-999,0,0.00
2014-3-31,78,60,54,-100,-100,-100,0,0,100,0.00,40.00,0,-999,0,0.00
2014-4-1,79,76,72,-100,-100,-100,0,0,100,0.00,40.00,0,-999,0,0.00
2014-4-2,82,74,69,-100,-100,-100,0,0,100,0.00,40.00,0,-999,0,0.00
2014-4-3,79,75,71,-100,-100,-100,0,0,100,0.00,40.00,0,-999,0,0.00
2014-4-4,73,59,51,-100,-100,-100,0,0,100,0.00,40.00,0,-999,0,0.00
2014-4-5,64,55,48,-100,-100,-100,0,0,100,0.00,40.00,0,-999,0,0.00
2014-4-6,57,52,50,-100,-100,-100,0,0,100,0.00,40.00,0,-999,0,0.00
2014-4-7,65,58,51,-100,-100,-100,0,0,100,0.00,40.00,0,-999,0,0.00
2014-4-8,69,58,48,-100,-100,-100,0,0,100,0.00,40.00,0,-999,0,0.00
2014-4-9,79,54,39,-100,-100,-100,0,0,100,0.00,40.00,0,-999,0,0.00
2014-4-10,83,69,58,-100,-100,-100,0,0,100,0.00,40.00,0,-999,0,0.00
2014-4-11,81,72,62,-100,-100,-100,0,0,100,0.00,40.00,0,-999,0,0.00
2014-4-12,82,70,63,-100,-100,-100,0,0,100,0.00,40.00,0,-999,0,0.00
2014-4-13,73,68,65,-100,-100,-100,0,0,100,0.00,40.00,0,-999,0,0.00
2014-4-14,73,54,45,-100,-100,-100,0,0,100,0.00,40.00,0,-999,0,0.00
2014-4-15,62,50,37,-100,-100,-100,0,0,100,0.00,40.00,0,-999,0,0.00
2014-4-16,65,54,35,-100,-100,-100,0,0,100,0.00,40.00,0,-999,0,0.00
2014-4-17,69,62,49,-100,-100,-100,0,0,100,0.00,40.00,0,-999,0,0.00
2014-4-18,76,62,54,-100,-100,-100,0,0,100,0.00,40.00,0,-999,0,0.00
2014-4-19,78,65,50,-100,-100,-100,0,0,100,0.00,40.00,0,-999,0,0.00
2014-4-20,79,69,56,-100,-100,-100,0,0,100,0.00,40.00,0,-999,0,0.00
2014-4-21,78,69,63,-100,-100,-100,0,0,100,0.00,40.00,0,-999,0,0.00
2014-4-22,81,72,64,-100,-100,-100,0,0,100,0.00,40.00,0,-999,0,0.00
2014-4-23,85,70,55,-100,-100,-100,0,0,100,0.00,40.00,0,-999,0,0.00
2014-4-24,84,72,62,-100,-100,-100,0,0,100,0.00,40.00,0,-999,0,0.00
2014-4-25,85,66,52,-100,-100,-100,0,0,100,0.00,40.00,0,-999,0,0.00
2014-4-26,80,72,56,-100,-100,-100,0,0,100,0.00,40.00,0,-999,0,0.00
2014-4-27,86,77,73,-100,-100,-100,0,0,100,0.00,40.00,0,-999,0,0.00
2014-4-28,83,74,62,-100,-100,-100,0,0,100,0.00,40.00,0,-999,0,0.00
2014-4-29,77,65,52,-100,-100,-100,0,0,100,0.00,40.00,0,-999,0,0.00
2014-4-30,65,56,47,-100,-100,-100,0,0,100,0.00,40.00,0,-999,0,0.00
2014-5-1,74,57,39,-100,-100,-100,0,0,100,0.00,40.00,0,-999,0,0.00
2014-5-2,81,68,43,-100,-100,-100,0,0,100,0.00,40.00,0,-999,0,0.00
2014-5-3,87,69,47,-100,-100,-100,0,0,100,0.00,40.00,0,-999,0,0.00
2014-5-4,88,76,57,-100,-100,-100,0,0,100,0.00,40.00,0,-999,0,0.00
2014-5-5,85,74,58,-100,-100,-100,0,0,100,0.00,40.00,0,-999,0,0.00
2014-5-6,83,74,64,-100,-100,-100,0,0,100,0.00,40.00,0,-999,0,0.00
2014-5-13,63,62,61,-100,-100,-100,0,0,100,0.00,40.00,0,-999,0,0.00
2014-5-14,66,60,54,-100,-100,-100,0,0,100,0.00,40.00,0,-999,0,0.00
2014-5-15,79,60,43,-100,-100,-100,0,0,100,0.00,40.00,0,-999,0,0.00
2014-5-16,82,68,51,-100,-100,-100,0,0,100,0.00,40.00,0,-999,0,0.00
2014-5-17,83,68,59,-100,-100,-100,0,0,100,0.00,40.00,0,-999,0,0.00
2014-5-18,83,70,57,-100,-100,-100,0,0,100,0.00,40.00,0,-999,0,0.00
2014-5-19,83,75,66,-100,-100,-100,0,0,100,0.00,40.00,0,-999,0,0.00
2014-5-20,87,77,69,-100,-100,-100,0,0,100,0.00,40.00,0,-999,0,0.00
2014-5-21,87,74,69,-100,-100,-100,0,0,100,0.00,40.00,0,-999,0,0.00
2014-5-22,85,74,62,-100,-100,-100,0,0,100,0.00,40.00,0,-999,0,0.00
2014-5-23,81,73,67,-100,-100,-100,0,0,100,0.00,40.00,0,-999,0,0.00
2014-5-24,83,75,69,-100,-100,-100,0,0,100,0.00,40.00,0,-999,0,0.00
2014-5-25,83,75,69,-100,-100,-100,0,0,100,0.00,40.00,0,-999,0,0.00
2014-5-26,78,72,67,-100,-100,-100,0,0,100,0.00,40.00,0,-999,0,0.00
2014-5-27,70,66,64,-100,-100,-100,0,0,100,0.00,40.00,0,-999,0,0.00
2014-5-28,80,71,66,-100,-100,-100,0,0,100,0.00,40.00,0,-999,0,0.00
2014-5-29,83,73,64,-100,-100,-100,0,0,100,0.00,40.00,0,-999,0,0.00
2014-5-30,87,78,67,-100,-100,-100,0,0,100,0.00,40.00,0,-999,0,0.00
2014-5-31,77,74,69,-100,-100,-100,0,0,100,0.00,40.00,0,-999,0,0.00
2014-6-1,86,77,68,-100,-100,-100,0,0,100,0.00,40.00,0,-999,0,0.00
2014-6-2,87,78,73,-100,-100,-100,0,0,100,0.00,40.00,0,-999,0,0.00
2014-6-3,87,78,73,-100,-100,-100,0,0,100,0.00,40.00,0,-999,0,0.00
2014-6-4,90,79,73,-100,-100,-100,0,0,100,0.00,40.00,0,-999,0,0.00
2014-6-5,90,79,74,-100,-100,-100,0,0,100,0.00,40.00,0,-999,0,0.00
2014-6-6,91,80,74,-100,-100,-100,0,0,100,0.00,40.00,0,-999,0,0.00
2014-6-7,93,83,71,-100,-100,-100,0,0,100,0.00,40.00,0,-999,0,0.00
2014-6-8,90,82,75,-100,-100,-100,0,0,100,0.00,40.00,0,-999,0,0.00
2014-6-9,81,74,63,-100,-100,-100,0,0,100,0.00,40.00,0,-999,0,0.00
2014-6-10,82,73,64,-100,-100,-100,0,0,100,0.00,40.00,0,-999,0,0.00
2014-6-11,91,79,62,-100,-100,-100,0,0,100,0.00,40.00,0,-999,0,0.00
2014-6-12,83,76,73,-100,-100,-100,0,0,100,0.00,40.00,0,-999,0,0.00
2014-6-13,91,85,73,-100,-100,-100,0,0,100,0.00,40.00,0,-999,0,0.00
2014-6-14,90,80,71,-100,-100,-100,0,0,100,0.00,40.00,0,-999,0,0.00
2014-6-15,92,80,75,-100,-100,-100,0,0,100,0.00,40.00,0,-999,0,0.00
2014-6-16,91,83,76,-100,-100,-100,0,0,100,0.00,40.00,0,-999,0,0.00
2014-6-17,92,83,75,-100,-100,-100,0,0,100,0.00,40.00,0,-999,0,0.00
2014-6-18,90,80,73,-100,-100,-100,0,0,100,0.00,40.00,0,-999,0,0.00
2014-6-19,90,82,73,-100,-100,-100,0,0,100,0.00,40.00,0,-999,0,0.00
2014-6-20,91,83,72,-100,-100,-100,0,0,100,0.00,40.00,0,-999,0,0.00
2014-6-21,88,79,71,-100,-100,-100,0,0,100,0.00,40.00,0,-999,0,0.00
2014-6-22,79,76,75,-100,-100,-100,0,0,100,0.00,40.00,0,-999,0,0.00
2014-6-23,88,75,72,-100,-100,-100,0,0,100,0.00,40.00,0,-999,0,0.00
2014-6-24,91,79,73,-100,-100,-100,0,0,100,0.00,40.00,0,-999,0,0.00
2014-6-25,78,73,68,-100,-100,-100,0,0,100,0.00,40.00,0,-999,0,0.00
2014-6-26,86,76,71,-100,-100,-100,0,0,100,0.00,40.00,0,-999,0,0.00
2014-6-27,86,79,72,-100,-100,-100,0,0,100,0.00,40.00,0,-999,0,0.00
2014-6-28,90,82,75,-100,-100,-100,0,0,100,0.00,40.00,0,-999,0,0.00
2014-6-29,92,84,80,-100,-100,-100,0,0,100,0.00,40.00,0,-999,0,0.00
2014-6-30,93,83,77,-100,-100,-100,0,0,100,0.00,40.00,0,-999,0,0.00
2014-7-1,91,80,73,-100,-100,-100,0,0,100,0.00,40.00,0,-999,0,0.00
2014-7-2,92,83,73,-100,-100,-100,0,0,100,0.00,40.00,0,-999,0,0.00
2014-7-3,90,81,73,-100,-100,-100,0,0,100,0.00,40.00,0,-999,0,0.00
2014-7-4,87,77,68,-100,-100,-100,0,0,100,0.00,40.00,0,-999,0,0.00
2014-7-5,89,77,70,-100,-100,-100,0,0,100,0.00,40.00,0,-999,0,0.00
2014-7-6,91,78,69,-100,-100,-100,0,0,100,0.00,40.00,0,-999,0,0.00
2014-7-7,93,85,74,-100,-100,-100,0,0,100,0.00,40.00,0,-999,0,0.00
2014-7-8,94,85,73,-100,-100,-100,0,0,100,0.00,40.00,0,-999,0,0.00
2014-7-9,94,86,74,-100,-100,-100,0,0,100,0.00,40.00,0,-999,0,0.00
2014-7-10,95,81,73,-100,0,200,0,0,100,0.00,40.00,0,0,0,0.00
2014-7-11,87,81,69,-100,0,200,0,0,100,0.00,40.00,0,0,0,0.00
2014-7-12,94,84,70,-100,0,200,0,0,100,0.00,40.00,0,0,0,0.00
2014-7-13,98,84,72,-100,0,200,0,0,100,0.00,40.00,0,0,0,0.00
2014-7-14,98,86,74,-100,0,200,0,0,100,0.00,40.00,0,0,0,0.00
2014-7-15,83,78,71,-100,0,200,0,0,100,0.00,40.00,0,0,0,0.00
2014-7-16,87,78,69,-100,0,200,0,0,100,0.00,40.00,0,0,0,0.00
2014-7-17,77,75,73,-100,0,200,0,0,100,0.00,40.00,0,0,0,0.00
2014-7-18,74,72,69,-100,0,200,0,0,100,0.00,40.00,0,0,0,0.00
2014-7-19,73,70,68,-100,0,200,0,0,100,0.00,40.00,0,0,0,0.00
2014-7-20,87,69,64,-100,0,200,0,0,100,0.00,40.00,0,0,0,0.00
2014-7-21,91,83,73,-100,0,200,0,0,100,0.00,40.00,0,0,0,0.00
2014-7-22,92,84,76,-100,0,200,0,0,100,0.00,40.00,0,0,0,0.00
2014-7-23,91,82,71,-100,0,200,0,0,100,0.00,40.00,0,0,0,0.00
2014-7-24,90,81,69,-100,0,200,0,0,100,0.00,40.00,0,0,0,0.00
2014-7-25,94,83,71,-100,0,200,0,0,100,0.00,40.00,0,0,0,0.00
2014-7-26,94,82,74,-100,0,200,0,0,100,0.00,40.00,0,0,0,0.00
2014-7-27,94,84,76,-100,0,200,0,0,100,0.00,40.00,0,0,0,0.00
2014-7-28,96,82,73,-100,0,200,0,0,100,0.00,40.00,0,0,0,0.00
2014-7-29,84,75,73,-100,0,200,0,0,100,0.00,40.00,0,0,0,0.00
2014-7-30,88,80,72,-100,0,200,0,0,100,0.00,40.00,0,0,0,0.00
2014-7-31,89,79,74,-100,0,200,0,0,100,0.00,40.00,0,0,0,0.00
2014-8-1,76,73,71,-100,0,200,0,0,100,0.00,40.00,0,0,0,0.00
2014-8-2,82,74,70,-100,0,200,0,0,100,0.00,40.00,0,0,0,0.00
2014-8-3,85,76,70,-100,0,200,0,0,100,0.00,40.00,0,0,0,0.00
2014-8-4,88,82,73,-100,0,200,0,0,100,0.00,40.00,0,0,0,0.00
2014-8-5,91,80,73,-100,0,200,0,0,100,0.00,40.00,0,0,0,0.00
2014-8-6,93,86,74,-100,0,200,0,0,100,0.00,40.00,0,0,0,0.00
2014-8-7,94,89,83,-100,0,200,0,0,100,0.00,40.00,0,0,0,0.00
2014-8-8,96,85,77,-100,0,200,0,0,100,0.00,40.00,0,0,0,0.00
2014-8-9,98,87,78,-100,0,200,0,0,100,0.00,40.00,0,0,0,0.00
2014-8-10,98,84,76,-100,0,200,0,0,100,0.00,40.00,0,0,0,0.00
2014-8-11,91,81,74,-100,0,200,0,0,100,0.00,40.00,0,0,0,0.00
2014-8-12,94,79,69,-100,0,200,0,0,100,0.00,40.00,0,0,0,0.00
2014-8-13,87,73,62,-100,0,200,0,0,100,0.00,40.00,0,0,0,0.00
2014-8-14,90,79,62,-100,0,200,0,0,100,0.00,40.00,0,0,0,0.00
2014-8-15,94,84,68,-100,0,200,0,0,100,0.00,40.00,0,0,0,0.00
2014-8-16,98,89,76,-100,0,200,0,0,100,0.00,40.00,0,0,0,0.00
2014-8-17,96,84,80,-100,0,200,0,0,100,0.00,40.00,0,0,0,0.00
2014-8-18,97,86,79,-100,0,200,0,0,100,0.00,40.00,0,0,0,0.00
2014-8-19,95,83,73,-100,0,200,0,0,100,0.00,40.00,0,0,0,0.00
2014-8-20,94,80,74,-100,0,200,0,0,100,0.00,40.00,0,0,0,0.00
2014-8-21,95,87,74,-100,0,200,0,0,100,0.00,40.00,0,0,0,0.00
2014-8-22,97,84,77,-100,0,200,0,0,100,0.00,40.00,0,0,0,0.00
2014-8-23,94,85,71,-100,0,200,0,0,100,0.00,40.00,0,0,0,0.00
2014-8-24,95,84,73,-100,0,200,0,0,100,0.00,40.00,0,0,0,0.00
2014-8-25,94,86,71,-100,0,200,0,0,100,0.00,40.00,0,0,0,0.00
2014-8-26,92,80,73,-100,0,200,0,0,100,0.00,40.00,0,0,0,0.00
2014-8-27,91,82,69,-100,0,200,0,0,100,0.00,40.00,0,0,0,0.00
2014-8-28,94,80,69,-100,0,200,0,0,100,0.00,40.00,0,0,0,0.00
2014-8-29,92,81,74,-100,0,200,0,0,100,0.00,40.00,0,0,0,0.00
2014-8-30,89,79,73,-100,0,200,0,0,100,0.00,40.00,0,0,0,0.00
2014-8-31,92,79,73,-100,0,200,0,0,100,0.00,40.00,0,0,0,0.00
2014-9-1,94,83,76,-100,0,200,0,0,100,0.00,40.00,0,0,0,0.00
2014-9-2,91,82,76,-100,0,200,0,0,100,0.00,40.00,0,0,0,0.00
2014-9-3,94,85,73,-100,0,200,0,0,100,0.00,40.00,0,0,0,0.00
2014-9-4,95,83,72,-100,0,200,0,0,100,0.00,40.00,0,0,0,0.00
2014-9-5,94,81,70,-100,0,200,0,0,100,0.00,40.00,0,0,0,0.00
2014-9-6,95,82,70,-100,0,200,0,0,100,0.00,40.00,0,0,0,0.00
2014-9-7,86,78,73,-100,0,200,0,0,100,0.00,40.00,0,0,0,0.00
2014-9-8,92,82,70,-100,0,200,0,0,100,0.00,40.00,0,0,0,0.00
2014-9-9,95,81,70,-100,0,200,0,0,100,0.00,40.00,0,0,0,0.00
2014-9-10,96,86,77,-100,0,200,0,0,100,0.00,40.00,0,0,0,0.00
2014-9-11,96,84,76,-100,0,200,0,0,100,0.00,40.00,0,0,0,0.00
2014-9-12,91,79,68,-100,0,200,0,0,100,0.00,40.00,0,0,0,0.00
2014-9-13,69,64,62,-100,0,200,0,0,100,0.00,40.00,0,0,0,0.00
2014-9-14,81,68,63,-100,0,200,0,0,100,0.00,40.00,0,0,0,0.00
2014-9-15,80,74,69,-100,0,200,0,0,100,0.00,40.00,0,0,0,0.00
2014-9-16,89,78,73,-100,0,200,0,0,100,0.00,40.00,0,0,0,0.00
2014-9-17,88,78,73,-100,0,200,0,0,100,0.00,40.00,0,0,0,0.00
2014-9-18,86,74,69,-100,0,200,0,0,100,0.00,40.00,0,0,0,0.00
2014-9-19,84,76,71,-100,0,200,0,0,100,0.00,40.00,0,0,0,0.00
2014-9-20,87,80,72,-100,0,200,0,0,100,0.00,40.00,0,0,0,0.00
2014-9-21,90,77,67,-100,0,200,0,0,100,0.00,40.00,0,0,0,0.00
2014-9-22,86,76,65,-100,0,200,0,0,100,0.00,40.00,0,0,0,0.00
2014-9-23,81,70,57,-100,0,200,0,0,100,0.00,40.00,0,0,0,0.00
2014-9-24,84,69,54,-100,0,200,0,0,100,0.00,40.00,0,0,0,0.00
2014-9-25,85,76,58,-100,0,200,0,0,100,0.00,40.00,0,0,0,0.00
2014-9-26,85,73,62,-100,0,200,0,0,100,0.00,40.00,0,0,0,0.00
2014-9-27,84,73,64,-100,0,200,0,0,100,0.00,40.00,0,0,0,0.00
2014-9-28,86,75,69,-100,0,200,0,0,100,0.00,40.00,0,0,0,0.00
2014-9-29,87,77,62,-100,0,200,0,0,100,0.00,40.00,0,0,0,0.00
2014-9-30,89,76,66,-100,0,200,0,0,100,0.00,40.00,0,0,0,0.00
2014-10-1,91,78,71,-100,0,200,0,0,100,0.00,40.00,0,0,0,0.00
2014-10-2,92,81,69,-100,0,200,0,0,100,0.00,40.00,0,0,0,0.00
2014-10-3,79,70,58,-100,0,200,0,0,100,0.00,40.00,0,0,0,0.00
2014-10-4,76,64,50,-100,0,200,0,0,100,0.00,40.00,0,0,0,0.00
2014-10-5,83,66,52,-100,0,200,0,0,100,0.00,40.00,0,0,0,0.00
2014-10-6,82,69,61,-100,0,200,0,0,100,0.00,40.00,0,0,0,0.00
2014-10-7,88,79,62,-100,0,200,0,0,100,0.00,40.00,0,0,0,0.00
2014-10-8,88,79,73,-100,0,200,0,0,100,0.00,40.00,0,0,0,0.00
2014-10-9,87,79,73,-100,0,200,0,0,100,0.00,40.00,0,0,0,0.00
2014-10-10,90,78,69,-100,0,200,0,0,100,0.00,40.00,0,0,0,0.00
2014-10-11,77,69,62,-100,0,200,0,0,100,0.00,40.00,0,0,0,0.00
2014-10-12,73,66,60,-100,0,200,0,0,100,0.00,40.00,0,0,0,0.00
2014-10-13,76,66,55,-100,0,200,0,0,100,0.00,40.00,0,0,0,0.00
2014-10-14,75,63,51,-100,0,200,0,0,100,0.00,40.00,0,0,0,0.00
2014-10-15,81,64,45,-100,0,200,0,0,100,0.00,40.00,0,0,0,0.00
2014-10-16,85,65,48,-100,0,200,0,0,100,0.00,40.00,0,0,0,0.00
2014-10-17,85,68,56,-100,0,200,0,0,100,0.00,40.00,0,0,0,0.00
2014-10-18,84,71,58,-100,0,200,0,0,100,0.00,40.00,0,0,0,0.00
2014-10-19,74,67,60,-100,0,200,0,0,100,0.00,40.00,0,0,0,0.00
2014-10-20,78,63,54,-100,0,200,0,0,100,0.00,40.00,0,0,0,0.00
2014-10-21,80,65,51,-100,0,200,0,0,100,0.00,40.00,0,0,0,0.00
2014-10-22,79,67,55,-100,0,200,0,0,100,0.00,40.00,0,0,0,0.00
2014-10-23,75,65,59,-100,0,200,0,0,100,0.00,40.00,0,0,0,0.00
2014-10-24,79,66,52,-100,0,200,0,0,100,0.00,40.00,0,0,0,0.00
2014-10-25,87,65,55,-100,0,200,0,0,100,0.00,40.00,0,0,0,0.00
2014-10-26,83,66,55,-100,0,200,0,0,100,0.00,40.00,0,0,0,0.00
2014-10-27,83,69,60,-100,0,200,0,0,100,0.00,40.00,0,0,0,0.00
2014-10-28,80,72,63,-100,0,200,0,0,100,0.00,40.00,0,0,0,0.00
2014-10-29,74,69,58,-100,0,200,0,0,100,0.00,40.00,0,0,0,0.00
2014-10-30,75,57,45,-100,0,200,0,0,100,0.00,40.00,0,0,0,0.00
2014-10-31,69,61,53,-100,0,200,0,0,100,0.00,40.00,0,0,0,0.00
2014-11-1,60,46,37,-100,0,200,0,0,100,0.00,40.00,0,0,0,0.00
2014-11-2,69,53,36,-100,0,200,0,0,100,0.00,40.00,0,0,0,0.00
2014-11-3,77,66,49,-100,0,200,0,0,100,0.00,40.00,0,0,0,0.00
2014-11-4,78,68,59,-100,0,200,0,0,100,0.00,40.00,0,0,0,0.00
2014-11-5,59,58,56,-100,0,200,0,0,100,0.00,40.00,0,0,0,0.00
2014-11-6,67,58,47,-100,0,200,0,0,100,0.00,40.00,0,0,0,0.00
2014-11-7,67,50,40,-100,0,200,0,0,100,0.00,40.00,0,0,0,0.00
2014-11-8,73,53,43,-100,0,200,0,0,100,0.00,40.00,0,0,0,0.00
2014-11-9,71,53,37,-100,0,200,0,0,100,0.00,40.00,0,0,0,0.00
2014-11-10,73,60,43,-100,0,200,0,0,100,0.00,40.00,0,0,0,0.00
2014-11-11,66,54,42,-100,0,200,0,0,100,0.00,40.00,0,0,0,0.00
2014-11-12,48,41,36,-100,0,200,0,0,100,0.00,40.00,0,0,0,0.00
2014-11-13,40,35,31,-100,0,200,0,0,100,0.00,40.00,0,0,0,0.00
2014-11-14,46,38,27,-100,0,200,0,0,100,0.00,40.00,0,0,0,0.00
2014-11-15,46,43,40,-100,0,200,0,0,100,0.00,40.00,0,0,0,0.00
2014-11-16,43,42,39,-100,0,200,0,0,100,0.00,40.00,0,0,0,0.00
2014-11-17,47,36,29,-100,0,200,0,0,100,0.00,40.00,0,0,0,0.00
2014-11-18,54,36,25,-100,0,200,0,0,100,0.00,40.00,0,0,0,0.00
2014-11-19,66,48,31,-100,0,200,0,0,100,0.00,40.00,0,0,0,0.00
2014-11-20,70,53,38,-100,0,200,0,0,100,0.00,40.00,0,0,0,0.00
2014-11-21,65,60,58,-100,0,200,0,0,100,0.00,40.00,0,0,0,0.00
2014-11-22,62,60,58,-100,0,200,0,0,100,0.00,40.00,0,0,0,0.00
2014-11-23,78,63,57,-100,0,200,0,0,100,0.00,40.00,0,0,0,0.00
2014-11-24,63,55,38,-100,0,200,0,0,100,0.00,40.00,0,0,0,0.00
2014-11-25,65,43,32,-100,0,200,0,0,100,0.00,40.00,0,0,0,0.00
2014-11-26,67,50,34,-100,0,200,0,0,100,0.00,40.00,0,0,0,0.00
2014-11-27,62,47,40,-100,0,200,0,0,100,0.00,40.00,0,0,0,0.00
2014-11-28,71,58,33,-100,0,200,0,0,100,0.00,40.00,0,0,0,0.00
2014-11-29,76,67,57,-100,0,200,0,0,100,0.00,40.00,0,0,0,0.00
2014-11-30,76,69,65,-100,0,200,0,0,100,0.00,40.00,0,0,0,0.00
2014-12-1,62,49,42,-100,0,200,0,0,100,0.00,40.00,0,0,0,0.00
2014-12-2,53,44,39,-100,0,200,0,0,100,0.00,40.00,0,0,0,0.00
2014-12-3,61,55,50,-100,0,200,0,0,100,0.00,40.00,0,0,0,0.00
2014-12-4,69,61,56,-100,0,200,0,0,100,0.00,40.00,0,0,0,0.00
2014-12-5,77,66,57,-100,0,200,0,0,100,0.00,40.00,0,0,0,0.00
2014-12-6,69,59,51,-100,0,200,0,0,100,0.00,40.00,0,0,0,0.00
2014-12-7,57,52,46,-100,0,200,0,0,100,0.00,40.00,0,0,0,0.00
2014-12-8,63,47,37,-100,0,200,0,0,100,0.00,40.00,0,0,0,0.00
2014-12-9,67,48,35,-100,0,200,0,0,100,0.00,40.00,0,0,0,0.00
2014-12-10,59,51,38,-100,0,200,0,0,100,0.00,40.00,0,0,0,0.00
2014-12-11,68,60,53,-100,0,200,0,0,100,0.00,40.00,0,0,0,0.00
2014-12-12,71,62,57,-100,0,200,0,0,100,0.00,40.00,0,0,0,0.00
2014-12-13,68,60,54,-100,0,200,0,0,100,0.00,40.00,0,0,0,0.00
2014-12-14,73,67,60,-100,0,200,0,0,100,0.00,40.00,0,0,0,0.00
2014-12-15,71,63,44,-100,0,200,0,0,100,0.00,40.00,0,0,0,0.00
2014-12-16,56,45,38,-100,0,200,0,0,100,0.00,40.00,0,0,0,0.00
2014-12-17,47,44,36,-100,0,200,0,0,100,0.00,40.00,0,0,0,0.00
2014-12-18,53,50,47,-100,0,200,0,0,100,0.00,40.00,0,0,0,0.00
2014-12-19,52,50,48,-100,0,200,0,0,100,0.00,40.00,0,0,0,0.00
2014-12-20,51,49,47,-100,0,200,0,0,100,0.00,40.00,0,0,0,0.00
2014-12-21,54,52,47,-100,0,200,0,0,100,0.00,40.00,0,0,0,0.00
2014-12-22,70,61,53,-100,0,200,0,0,100,0.00,40.00,0,0,0,0.00
2014-12-23,54,50,47,-100,0,200,0,0,100,0.00,40.00,0,0,0,0.00
2014-12-24,53,45,32,-100,0,200,0,0,100,0.00,40.00,0,0,0,0.00
2014-12-25,62,49,29,-100,0,200,0,0,100,0.00,40.00,0,0,0,0.00
2014-12-26,64,59,51,-100,0,200,0,0,100,0.00,40.00,0,0,0,0.00
2014-12-27,63,47,40,-100,0,200,0,0,100,0.00,40.00,0,0,0,0.00
2014-12-28,40,38,36,-100,0,200,0,0,100,0.00,40.00,0,0,0,0.00
2014-12-29,48,40,29,-100,0,200,0,0,100,0.00,40.00,0,0,0,0.00
2014-12-30,45,42,32,-100,0,200,0,0,100,0.00,40.00,0,0,0,0.00
2014-12-31,41,38,30,-100,0,200,0,0,100,0.00,40.00,0,0,0,0.00
2015-1-1,41,38,36,-100,0,200,0,0,100,0.00,40.00,0,0,0,0.00
2015-1-2,44,42,40,-100,0,200,0,0,100,0.00,40.00,0,0,0,0.00